sensor_id;sensor_type;location;lat;lon;timestamp;P1;durP1;ratioP1;P2;durP2;ratioP2
22774;SDS011;11554;51.106;3.684;2023-02-15T00:00:00;63.20;;;37.70;;
22774;SDS011;11554;51.106;3.684;2023-02-15T00:05:00;72.30;;;40.70;;
22774;SDS011;11554;51.106;3.684;2023-02-15T00:10:00;72.30;;;40.70;;
22774;SDS011;11554;51.106;3.684;2023-02-15T00:15:00;72.80;;;41.10;;
22774;SDS011;11554;51.106;3.684;2023-02-15T00:20:00;72.80;;;41.10;;
22774;SDS011;11554;51.106;3.684;2023-02-15T00:25:00;66.50;;;37.80;;
22774;SDS011;11554;51.106;3.684;2023-02-15T00:30:00;66.50;;;37.80;;
22774;SDS011;11554;51.106;3.684;2023-02-15T00:35:00;162.50;;;44.40;;
22774;SDS011;11554;51.106;3.684;2023-02-15T00:40:00;162.50;;;44.40;;
22774;SDS011;11554;51.106;3.684;2023-02-15T00:45:00;66.40;;;39.20;;
22774;SDS011;11554;51.106;3.684;2023-02-15T00:50:00;69.60;;;41.20;;
22774;SDS011;11554;51.106;3.684;2023-02-15T00:55:00;69.60;;;41.20;;
22774;SDS011;11554;51.106;3.684;2023-02-15T01:00:00;87.50;;;44.30;;
22774;SDS011;11554;51.106;3.684;2023-02-15T01:05:00;87.50;;;44.30;;
22774;SDS011;11554;51.106;3.684;2023-02-15T01:10:00;71.30;;;39.20;;
22774;SDS011;11554;51.106;3.684;2023-02-15T01:15:00;71.30;;;39.20;;
22774;SDS011;11554;51.106;3.684;2023-02-15T01:20:00;80.80;;;44.40;;
22774;SDS011;11554;51.106;3.684;2023-02-15T01:25:00;80.80;;;44.40;;
22774;SDS011;11554;51.106;3.684;2023-02-15T01:30:00;75.40;;;39.90;;
22774;SDS011;11554;51.106;3.684;2023-02-15T01:35:00;75.40;;;39.90;;
22774;SDS011;11554;51.106;3.684;2023-02-15T01:40:00;71.70;;;40.00;;
22774;SDS011;11554;51.106;3.684;2023-02-15T01:45:02;71.70;;;40.00;;
22774;SDS011;11554;51.106;3.684;2023-02-15T01:50:06;77.50;;;39.90;;
22774;SDS011;11554;51.106;3.684;2023-02-15T01:55:00;77.50;;;39.90;;
22774;SDS011;11554;51.106;3.684;2023-02-15T02:00:03;79.90;;;42.90;;
22774;SDS011;11554;51.106;3.684;2023-02-15T02:05:02;79.90;;;42.90;;
22774;SDS011;11554;51.106;3.684;2023-02-15T02:10:00;71.20;;;39.40;;
22774;SDS011;11554;51.106;3.684;2023-02-15T02:15:00;71.20;;;39.40;;
22774;SDS011;11554;51.106;3.684;2023-02-15T02:20:15;70.60;;;38.70;;
22774;SDS011;11554;51.106;3.684;2023-02-15T02:35:06;87.60;;;46.20;;
22774;SDS011;11554;51.106;3.684;2023-02-15T02:40:05;74.90;;;39.80;;
22774;SDS011;11554;51.106;3.684;2023-02-15T02:45:02;74.90;;;39.80;;
22774;SDS011;11554;51.106;3.684;2023-02-15T02:50:03;64.80;;;37.30;;
22774;SDS011;11554;51.106;3.684;2023-02-15T02:55:01;64.80;;;37.30;;
22774;SDS011;11554;51.106;3.684;2023-02-15T03:00:02;64.00;;;36.20;;
22774;SDS011;11554;51.106;3.684;2023-02-15T03:05:02;64.00;;;36.20;;
22774;SDS011;11554;51.106;3.684;2023-02-15T03:10:02;78.00;;;44.20;;
22774;SDS011;11554;51.106;3.684;2023-02-15T03:15:03;78.00;;;44.20;;
22774;SDS011;11554;51.106;3.684;2023-02-15T03:20:03;88.90;;;46.80;;
22774;SDS011;11554;51.106;3.684;2023-02-15T03:25:05;88.90;;;46.80;;
22774;SDS011;11554;51.106;3.684;2023-02-15T03:30:01;62.20;;;37.00;;
22774;SDS011;11554;51.106;3.684;2023-02-15T03:35:00;62.20;;;37.00;;
22774;SDS011;11554;51.106;3.684;2023-02-15T03:40:03;71.90;;;40.40;;
22774;SDS011;11554;51.106;3.684;2023-02-15T03:45:04;71.90;;;40.40;;
22774;SDS011;11554;51.106;3.684;2023-02-15T03:50:03;65.60;;;38.40;;
22774;SDS011;11554;51.106;3.684;2023-02-15T03:55:00;65.60;;;38.40;;
22774;SDS011;11554;51.106;3.684;2023-02-15T04:00:02;80.30;;;43.20;;
22774;SDS011;11554;51.106;3.684;2023-02-15T04:05:00;80.30;;;43.20;;
22774;SDS011;11554;51.106;3.684;2023-02-15T04:10:00;85.00;;;47.30;;
22774;SDS011;11554;51.106;3.684;2023-02-15T04:15:00;85.00;;;47.30;;
22774;SDS011;11554;51.106;3.684;2023-02-15T04:20:00;85.50;;;47.00;;
22774;SDS011;11554;51.106;3.684;2023-02-15T04:25:00;85.50;;;47.00;;
22774;SDS011;11554;51.106;3.684;2023-02-15T04:30:00;77.60;;;43.40;;
22774;SDS011;11554;51.106;3.684;2023-02-15T04:35:00;77.60;;;43.40;;
22774;SDS011;11554;51.106;3.684;2023-02-15T04:40:00;93.60;;;48.20;;
22774;SDS011;11554;51.106;3.684;2023-02-15T04:45:00;93.60;;;48.20;;
22774;SDS011;11554;51.106;3.684;2023-02-15T04:50:00;99.50;;;53.30;;
22774;SDS011;11554;51.106;3.684;2023-02-15T04:55:00;99.50;;;53.30;;
22774;SDS011;11554;51.106;3.684;2023-02-15T05:00:00;92.10;;;50.60;;
22774;SDS011;11554;51.106;3.684;2023-02-15T05:05:00;92.10;;;50.60;;
22774;SDS011;11554;51.106;3.684;2023-02-15T05:10:00;92.30;;;48.50;;
22774;SDS011;11554;51.106;3.684;2023-02-15T05:15:00;92.30;;;48.50;;
22774;SDS011;11554;51.106;3.684;2023-02-15T05:20:00;99.70;;;53.90;;
22774;SDS011;11554;51.106;3.684;2023-02-15T05:25:00;99.70;;;53.90;;
22774;SDS011;11554;51.106;3.684;2023-02-15T05:30:00;85.20;;;48.30;;
22774;SDS011;11554;51.106;3.684;2023-02-15T05:35:00;85.20;;;48.30;;
22774;SDS011;11554;51.106;3.684;2023-02-15T05:40:00;92.90;;;49.50;;
22774;SDS011;11554;51.106;3.684;2023-02-15T05:45:00;92.90;;;49.50;;
22774;SDS011;11554;51.106;3.684;2023-02-15T05:50:00;99.50;;;52.80;;
22774;SDS011;11554;51.106;3.684;2023-02-15T05:55:00;99.50;;;52.80;;
22774;SDS011;11554;51.106;3.684;2023-02-15T06:00:00;98.90;;;53.30;;
22774;SDS011;11554;51.106;3.684;2023-02-15T06:05:00;98.90;;;53.30;;
22774;SDS011;11554;51.106;3.684;2023-02-15T06:10:00;103.20;;;55.00;;
22774;SDS011;11554;51.106;3.684;2023-02-15T06:15:00;103.20;;;55.00;;
22774;SDS011;11554;51.106;3.684;2023-02-15T06:20:00;105.00;;;54.10;;
22774;SDS011;11554;51.106;3.684;2023-02-15T06:25:00;105.00;;;54.10;;
22774;SDS011;11554;51.106;3.684;2023-02-15T06:30:00;100.90;;;50.80;;
22774;SDS011;11554;51.106;3.684;2023-02-15T06:35:00;100.90;;;50.80;;
22774;SDS011;11554;51.106;3.684;2023-02-15T06:40:00;88.90;;;47.10;;
22774;SDS011;11554;51.106;3.684;2023-02-15T06:45:00;88.90;;;47.10;;
22774;SDS011;11554;51.106;3.684;2023-02-15T06:50:00;92.00;;;48.20;;
22774;SDS011;11554;51.106;3.684;2023-02-15T06:55:00;92.00;;;48.20;;
22774;SDS011;11554;51.106;3.684;2023-02-15T07:00:00;85.90;;;45.00;;
22774;SDS011;11554;51.106;3.684;2023-02-15T07:05:00;85.90;;;45.00;;
22774;SDS011;11554;51.106;3.684;2023-02-15T07:10:00;89.90;;;47.80;;
22774;SDS011;11554;51.106;3.684;2023-02-15T07:15:00;89.90;;;47.80;;
22774;SDS011;11554;51.106;3.684;2023-02-15T07:20:00;98.40;;;50.40;;
22774;SDS011;11554;51.106;3.684;2023-02-15T07:25:00;98.40;;;50.40;;
22774;SDS011;11554;51.106;3.684;2023-02-15T07:30:00;101.10;;;55.60;;
22774;SDS011;11554;51.106;3.684;2023-02-15T07:35:00;101.10;;;55.60;;
22774;SDS011;11554;51.106;3.684;2023-02-15T07:40:00;126.20;;;64.70;;
22774;SDS011;11554;51.106;3.684;2023-02-15T07:45:00;126.20;;;64.70;;
22774;SDS011;11554;51.106;3.684;2023-02-15T07:50:00;132.70;;;69.50;;
22774;SDS011;11554;51.106;3.684;2023-02-15T07:55:00;132.70;;;69.50;;
22774;SDS011;11554;51.106;3.684;2023-02-15T08:00:00;143.20;;;67.40;;
22774;SDS011;11554;51.106;3.684;2023-02-15T08:05:00;143.20;;;67.40;;
22774;SDS011;11554;51.106;3.684;2023-02-15T08:10:00;144.30;;;71.40;;
22774;SDS011;11554;51.106;3.684;2023-02-15T08:15:00;144.30;;;71.40;;
22774;SDS011;11554;51.106;3.684;2023-02-15T08:20:00;158.80;;;72.80;;
22774;SDS011;11554;51.106;3.684;2023-02-15T08:25:00;158.80;;;72.80;;
22774;SDS011;11554;51.106;3.684;2023-02-15T08:30:00;172.30;;;74.80;;
22774;SDS011;11554;51.106;3.684;2023-02-15T08:35:00;172.30;;;74.80;;
22774;SDS011;11554;51.106;3.684;2023-02-15T08:40:00;182.70;;;73.40;;
22774;SDS011;11554;51.106;3.684;2023-02-15T08:45:00;182.70;;;73.40;;
22774;SDS011;11554;51.106;3.684;2023-02-15T08:50:00;172.20;;;70.00;;
22774;SDS011;11554;51.106;3.684;2023-02-15T08:55:00;172.20;;;70.00;;
22774;SDS011;11554;51.106;3.684;2023-02-15T09:00:00;144.40;;;63.00;;
22774;SDS011;11554;51.106;3.684;2023-02-15T09:05:00;144.40;;;63.00;;
22774;SDS011;11554;51.106;3.684;2023-02-15T09:10:00;137.70;;;62.20;;
22774;SDS011;11554;51.106;3.684;2023-02-15T09:15:00;137.70;;;62.20;;
22774;SDS011;11554;51.106;3.684;2023-02-15T09:20:00;127.60;;;59.30;;
22774;SDS011;11554;51.106;3.684;2023-02-15T09:25:00;127.60;;;59.30;;
22774;SDS011;11554;51.106;3.684;2023-02-15T09:30:00;135.80;;;66.20;;
22774;SDS011;11554;51.106;3.684;2023-02-15T09:35:00;135.80;;;66.20;;
22774;SDS011;11554;51.106;3.684;2023-02-15T09:40:00;116.40;;;57.50;;
22774;SDS011;11554;51.106;3.684;2023-02-15T09:45:09;116.40;;;57.50;;
22774;SDS011;11554;51.106;3.684;2023-02-15T09:50:06;89.70;;;48.20;;
22774;SDS011;11554;51.106;3.684;2023-02-15T09:55:14;89.70;;;48.20;;
22774;SDS011;11554;51.106;3.684;2023-02-15T10:00:07;87.50;;;46.90;;
22774;SDS011;11554;51.106;3.684;2023-02-15T10:05:11;87.50;;;46.90;;
22774;SDS011;11554;51.106;3.684;2023-02-15T10:10:10;77.30;;;43.60;;
22774;SDS011;11554;51.106;3.684;2023-02-15T10:15:21;77.30;;;43.60;;
22774;SDS011;11554;51.106;3.684;2023-02-15T10:20:09;68.80;;;39.30;;
22774;SDS011;11554;51.106;3.684;2023-02-15T10:25:10;68.80;;;39.30;;
22774;SDS011;11554;51.106;3.684;2023-02-15T10:30:07;63.90;;;36.80;;
22774;SDS011;11554;51.106;3.684;2023-02-15T10:35:01;63.90;;;36.80;;
22774;SDS011;11554;51.106;3.684;2023-02-15T10:40:06;61.30;;;35.80;;
22774;SDS011;11554;51.106;3.684;2023-02-15T10:45:10;61.30;;;35.80;;
22774;SDS011;11554;51.106;3.684;2023-02-15T10:50:08;60.70;;;36.30;;
22774;SDS011;11554;51.106;3.684;2023-02-15T10:55:07;60.70;;;36.30;;
22774;SDS011;11554;51.106;3.684;2023-02-15T11:00:07;61.00;;;35.20;;
22774;SDS011;11554;51.106;3.684;2023-02-15T11:05:15;61.00;;;35.20;;
22774;SDS011;11554;51.106;3.684;2023-02-15T11:10:06;55.90;;;34.10;;
22774;SDS011;11554;51.106;3.684;2023-02-15T11:15:04;55.90;;;34.10;;
22774;SDS011;11554;51.106;3.684;2023-02-15T11:20:04;56.50;;;34.60;;
22774;SDS011;11554;51.106;3.684;2023-02-15T11:25:01;56.50;;;34.60;;
22774;SDS011;11554;51.106;3.684;2023-02-15T11:30:02;53.80;;;32.60;;
22774;SDS011;11554;51.106;3.684;2023-02-15T11:35:03;53.80;;;32.60;;
22774;SDS011;11554;51.106;3.684;2023-02-15T11:40:01;52.50;;;33.00;;
22774;SDS011;11554;51.106;3.684;2023-02-15T11:45:07;52.50;;;33.00;;
22774;SDS011;11554;51.106;3.684;2023-02-15T11:50:00;49.60;;;31.00;;
22774;SDS011;11554;51.106;3.684;2023-02-15T11:55:00;49.60;;;31.00;;
22774;SDS011;11554;51.106;3.684;2023-02-15T12:00:02;51.20;;;32.90;;
22774;SDS011;11554;51.106;3.684;2023-02-15T12:05:03;51.20;;;32.90;;
22774;SDS011;11554;51.106;3.684;2023-02-15T12:10:03;50.40;;;31.30;;
22774;SDS011;11554;51.106;3.684;2023-02-15T12:15:02;50.40;;;31.30;;
22774;SDS011;11554;51.106;3.684;2023-02-15T12:20:02;47.20;;;31.20;;
22774;SDS011;11554;51.106;3.684;2023-02-15T12:25:02;47.20;;;31.20;;
22774;SDS011;11554;51.106;3.684;2023-02-15T12:30:04;45.80;;;29.80;;
22774;SDS011;11554;51.106;3.684;2023-02-15T12:35:06;45.80;;;29.80;;
22774;SDS011;11554;51.106;3.684;2023-02-15T12:40:02;48.10;;;29.90;;
22774;SDS011;11554;51.106;3.684;2023-02-15T12:45:03;48.10;;;29.90;;
22774;SDS011;11554;51.106;3.684;2023-02-15T12:50:05;45.80;;;30.20;;
22774;SDS011;11554;51.106;3.684;2023-02-15T12:55:11;45.80;;;30.20;;
22774;SDS011;11554;51.106;3.684;2023-02-15T13:00:03;45.00;;;30.20;;
22774;SDS011;11554;51.106;3.684;2023-02-15T13:05:14;45.00;;;30.20;;
22774;SDS011;11554;51.106;3.684;2023-02-15T13:10:00;47.10;;;30.00;;
22774;SDS011;11554;51.106;3.684;2023-02-15T13:15:00;47.10;;;30.00;;
22774;SDS011;11554;51.106;3.684;2023-02-15T13:20:04;46.00;;;28.70;;
22774;SDS011;11554;51.106;3.684;2023-02-15T13:25:04;46.00;;;28.70;;
22774;SDS011;11554;51.106;3.684;2023-02-15T13:30:03;46.40;;;28.20;;
22774;SDS011;11554;51.106;3.684;2023-02-15T13:35:01;46.40;;;28.20;;
22774;SDS011;11554;51.106;3.684;2023-02-15T13:40:03;41.70;;;28.00;;
22774;SDS011;11554;51.106;3.684;2023-02-15T13:45:09;41.70;;;28.00;;
22774;SDS011;11554;51.106;3.684;2023-02-15T13:50:16;43.30;;;28.80;;
22774;SDS011;11554;51.106;3.684;2023-02-15T14:00:09;41.30;;;29.00;;
22774;SDS011;11554;51.106;3.684;2023-02-15T14:05:14;41.30;;;29.00;;
22774;SDS011;11554;51.106;3.684;2023-02-15T14:10:15;46.40;;;28.40;;
22774;SDS011;11554;51.106;3.684;2023-02-15T14:15:09;46.40;;;28.40;;
22774;SDS011;11554;51.106;3.684;2023-02-15T14:20:06;42.60;;;28.20;;
22774;SDS011;11554;51.106;3.684;2023-02-15T14:25:15;42.60;;;28.20;;
22774;SDS011;11554;51.106;3.684;2023-02-15T14:30:02;45.00;;;30.10;;
22774;SDS011;11554;51.106;3.684;2023-02-15T14:35:02;45.00;;;30.10;;
22774;SDS011;11554;51.106;3.684;2023-02-15T14:40:05;44.40;;;30.60;;
22774;SDS011;11554;51.106;3.684;2023-02-15T14:45:04;44.40;;;30.60;;
22774;SDS011;11554;51.106;3.684;2023-02-15T14:55:00;47.60;;;30.60;;
22774;SDS011;11554;51.106;3.684;2023-02-15T15:00:03;45.70;;;32.00;;
22774;SDS011;11554;51.106;3.684;2023-02-15T15:05:02;45.70;;;32.00;;
22774;SDS011;11554;51.106;3.684;2023-02-15T15:10:03;47.50;;;32.70;;
22774;SDS011;11554;51.106;3.684;2023-02-15T15:15:00;47.50;;;32.70;;
22774;SDS011;11554;51.106;3.684;2023-02-15T15:20:02;49.90;;;31.20;;
22774;SDS011;11554;51.106;3.684;2023-02-15T15:25:00;49.90;;;31.20;;
22774;SDS011;11554;51.106;3.684;2023-02-15T15:30:00;49.50;;;32.90;;
22774;SDS011;11554;51.106;3.684;2023-02-15T15:35:08;49.50;;;32.90;;
22774;SDS011;11554;51.106;3.684;2023-02-15T15:40:18;47.50;;;31.40;;
22774;SDS011;11554;51.106;3.684;2023-02-15T15:45:16;47.50;;;31.40;;
22774;SDS011;11554;51.106;3.684;2023-02-15T15:50:00;47.00;;;30.90;;
22774;SDS011;11554;51.106;3.684;2023-02-15T15:55:04;47.00;;;30.90;;
22774;SDS011;11554;51.106;3.684;2023-02-15T16:00:00;49.60;;;32.00;;
22774;SDS011;11554;51.106;3.684;2023-02-15T16:05:06;49.60;;;32.00;;
22774;SDS011;11554;51.106;3.684;2023-02-15T16:10:02;50.30;;;31.60;;
22774;SDS011;11554;51.106;3.684;2023-02-15T16:15:02;50.30;;;31.60;;
22774;SDS011;11554;51.106;3.684;2023-02-15T16:20:04;49.00;;;32.30;;
22774;SDS011;11554;51.106;3.684;2023-02-15T16:25:15;49.00;;;32.30;;
22774;SDS011;11554;51.106;3.684;2023-02-15T16:30:18;49.00;;;31.70;;
22774;SDS011;11554;51.106;3.684;2023-02-15T16:35:02;49.00;;;31.70;;
22774;SDS011;11554;51.106;3.684;2023-02-15T16:40:00;50.30;;;32.50;;
22774;SDS011;11554;51.106;3.684;2023-02-15T16:45:07;50.30;;;32.50;;
22774;SDS011;11554;51.106;3.684;2023-02-15T16:50:02;50.20;;;31.00;;
22774;SDS011;11554;51.106;3.684;2023-02-15T16:55:03;50.20;;;31.00;;
22774;SDS011;11554;51.106;3.684;2023-02-15T17:00:03;53.70;;;33.30;;
22774;SDS011;11554;51.106;3.684;2023-02-15T17:05:07;53.70;;;33.30;;
22774;SDS011;11554;51.106;3.684;2023-02-15T17:10:00;47.90;;;32.00;;
22774;SDS011;11554;51.106;3.684;2023-02-15T17:15:00;47.90;;;32.00;;
22774;SDS011;11554;51.106;3.684;2023-02-15T17:20:00;53.40;;;32.90;;
22774;SDS011;11554;51.106;3.684;2023-02-15T17:25:03;53.40;;;32.90;;
22774;SDS011;11554;51.106;3.684;2023-02-15T17:30:02;51.80;;;31.80;;
22774;SDS011;11554;51.106;3.684;2023-02-15T17:35:07;51.80;;;31.80;;
22774;SDS011;11554;51.106;3.684;2023-02-15T17:40:14;53.20;;;33.40;;
22774;SDS011;11554;51.106;3.684;2023-02-15T17:45:00;53.20;;;33.40;;
22774;SDS011;11554;51.106;3.684;2023-02-15T17:50:01;56.20;;;34.40;;
22774;SDS011;11554;51.106;3.684;2023-02-15T17:55:07;56.20;;;34.40;;
22774;SDS011;11554;51.106;3.684;2023-02-15T18:00:00;55.00;;;34.30;;
22774;SDS011;11554;51.106;3.684;2023-02-15T18:05:00;55.00;;;34.30;;
22774;SDS011;11554;51.106;3.684;2023-02-15T18:10:00;60.00;;;34.30;;
22774;SDS011;11554;51.106;3.684;2023-02-15T18:15:00;60.00;;;34.30;;
22774;SDS011;11554;51.106;3.684;2023-02-15T18:20:02;57.00;;;34.70;;
22774;SDS011;11554;51.106;3.684;2023-02-15T18:25:00;57.00;;;34.70;;
22774;SDS011;11554;51.106;3.684;2023-02-15T18:30:00;57.00;;;35.90;;
22774;SDS011;11554;51.106;3.684;2023-02-15T18:35:00;57.00;;;35.90;;
22774;SDS011;11554;51.106;3.684;2023-02-15T18:40:00;59.90;;;37.20;;
22774;SDS011;11554;51.106;3.684;2023-02-15T18:45:06;59.90;;;37.20;;
22774;SDS011;11554;51.106;3.684;2023-02-15T18:50:00;67.00;;;37.80;;
22774;SDS011;11554;51.106;3.684;2023-02-15T18:55:02;67.00;;;37.80;;
22774;SDS011;11554;51.106;3.684;2023-02-15T19:00:00;61.30;;;37.10;;
22774;SDS011;11554;51.106;3.684;2023-02-15T19:05:00;61.30;;;37.10;;
22774;SDS011;11554;51.106;3.684;2023-02-15T19:10:00;62.40;;;38.00;;
22774;SDS011;11554;51.106;3.684;2023-02-15T19:20:00;65.60;;;39.70;;
22774;SDS011;11554;51.106;3.684;2023-02-15T19:25:02;65.60;;;39.70;;
22774;SDS011;11554;51.106;3.684;2023-02-15T19:30:02;61.40;;;38.40;;
22774;SDS011;11554;51.106;3.684;2023-02-15T19:35:00;61.40;;;38.40;;
22774;SDS011;11554;51.106;3.684;2023-02-15T19:40:00;64.90;;;40.30;;
22774;SDS011;11554;51.106;3.684;2023-02-15T19:45:00;64.90;;;40.30;;
22774;SDS011;11554;51.106;3.684;2023-02-15T19:50:00;70.20;;;42.10;;
22774;SDS011;11554;51.106;3.684;2023-02-15T19:55:00;70.20;;;42.10;;
22774;SDS011;11554;51.106;3.684;2023-02-15T20:00:00;67.80;;;40.70;;
22774;SDS011;11554;51.106;3.684;2023-02-15T20:05:00;67.80;;;40.70;;
22774;SDS011;11554;51.106;3.684;2023-02-15T20:10:00;72.60;;;43.80;;
22774;SDS011;11554;51.106;3.684;2023-02-15T20:15:00;72.60;;;43.80;;
22774;SDS011;11554;51.106;3.684;2023-02-15T20:20:00;71.30;;;44.70;;
22774;SDS011;11554;51.106;3.684;2023-02-15T20:25:00;71.30;;;44.70;;
22774;SDS011;11554;51.106;3.684;2023-02-15T20:30:00;75.10;;;44.90;;
22774;SDS011;11554;51.106;3.684;2023-02-15T20:35:00;75.10;;;44.90;;
22774;SDS011;11554;51.106;3.684;2023-02-15T20:40:00;74.70;;;44.40;;
22774;SDS011;11554;51.106;3.684;2023-02-15T20:45:00;74.70;;;44.40;;
22774;SDS011;11554;51.106;3.684;2023-02-15T20:50:00;75.70;;;45.40;;
22774;SDS011;11554;51.106;3.684;2023-02-15T20:55:00;75.70;;;45.40;;
22774;SDS011;11554;51.106;3.684;2023-02-15T21:00:00;72.30;;;44.00;;
22774;SDS011;11554;51.106;3.684;2023-02-15T21:05:00;72.30;;;44.00;;
22774;SDS011;11554;51.106;3.684;2023-02-15T21:10:00;71.30;;;44.20;;
22774;SDS011;11554;51.106;3.684;2023-02-15T21:15:00;71.30;;;44.20;;
22774;SDS011;11554;51.106;3.684;2023-02-15T21:20:00;71.30;;;44.70;;
22774;SDS011;11554;51.106;3.684;2023-02-15T21:25:00;71.30;;;44.70;;
22774;SDS011;11554;51.106;3.684;2023-02-15T21:30:00;72.80;;;43.90;;
22774;SDS011;11554;51.106;3.684;2023-02-15T21:35:00;72.80;;;43.90;;
22774;SDS011;11554;51.106;3.684;2023-02-15T21:40:00;74.60;;;45.20;;
22774;SDS011;11554;51.106;3.684;2023-02-15T21:45:00;74.60;;;45.20;;
22774;SDS011;11554;51.106;3.684;2023-02-15T21:50:00;76.60;;;45.60;;
22774;SDS011;11554;51.106;3.684;2023-02-15T21:55:00;76.60;;;45.60;;
22774;SDS011;11554;51.106;3.684;2023-02-15T22:00:00;69.10;;;43.30;;
22774;SDS011;11554;51.106;3.684;2023-02-15T22:05:00;69.10;;;43.30;;
22774;SDS011;11554;51.106;3.684;2023-02-15T22:10:00;68.50;;;40.80;;
22774;SDS011;11554;51.106;3.684;2023-02-15T22:15:00;68.50;;;40.80;;
22774;SDS011;11554;51.106;3.684;2023-02-15T22:20:00;68.00;;;42.30;;
22774;SDS011;11554;51.106;3.684;2023-02-15T22:25:00;68.00;;;42.30;;
22774;SDS011;11554;51.106;3.684;2023-02-15T22:30:00;65.90;;;40.20;;
22774;SDS011;11554;51.106;3.684;2023-02-15T22:35:00;65.90;;;40.20;;
22774;SDS011;11554;51.106;3.684;2023-02-15T22:40:00;67.00;;;40.80;;
22774;SDS011;11554;51.106;3.684;2023-02-15T22:45:00;67.00;;;40.80;;
22774;SDS011;11554;51.106;3.684;2023-02-15T22:50:00;70.40;;;41.70;;
22774;SDS011;11554;51.106;3.684;2023-02-15T22:55:00;70.40;;;41.70;;
22774;SDS011;11554;51.106;3.684;2023-02-15T23:00:00;65.30;;;40.90;;
22774;SDS011;11554;51.106;3.684;2023-02-15T23:05:00;65.30;;;40.90;;
22774;SDS011;11554;51.106;3.684;2023-02-15T23:10:00;69.80;;;41.40;;
22774;SDS011;11554;51.106;3.684;2023-02-15T23:15:00;69.80;;;41.40;;
22774;SDS011;11554;51.106;3.684;2023-02-15T23:20:00;70.70;;;42.20;;
22774;SDS011;11554;51.106;3.684;2023-02-15T23:25:00;70.70;;;42.20;;
22774;SDS011;11554;51.106;3.684;2023-02-15T23:30:02;66.30;;;40.90;;
22774;SDS011;11554;51.106;3.684;2023-02-15T23:35:00;66.30;;;40.90;;
22774;SDS011;11554;51.106;3.684;2023-02-15T23:40:00;69.20;;;41.10;;
22774;SDS011;11554;51.106;3.684;2023-02-15T23:45:01;69.20;;;41.10;;
22774;SDS011;11554;51.106;3.684;2023-02-15T23:50:00;68.40;;;41.00;;
22774;SDS011;11554;51.106;3.684;2023-02-15T23:55:00;68.40;;;41.00;;
